sensor_id;sensor_type;location;lat;lon;timestamp;P1;durP1;ratioP1;P2;durP2;ratioP2
44925;SDS011;30662;51.210;7.656;2024-02-21T00:00:53;17.10;;;8.63;;
44925;SDS011;30662;51.210;7.656;2024-02-21T00:03:20;21.73;;;9.30;;
44925;SDS011;30662;51.210;7.656;2024-02-21T00:05:47;20.20;;;8.65;;
44925;SDS011;30662;51.210;7.656;2024-02-21T00:08:14;22.58;;;8.93;;
44925;SDS011;30662;51.210;7.656;2024-02-21T00:10:42;22.88;;;9.77;;
44925;SDS011;30662;51.210;7.656;2024-02-21T00:27:02;23.27;;;8.40;;
44925;SDS011;30662;51.210;7.656;2024-02-21T00:29:29;26.08;;;9.15;;
44925;SDS011;30662;51.210;7.656;2024-02-21T00:42:21;20.17;;;9.40;;
44925;SDS011;30662;51.210;7.656;2024-02-21T00:44:48;21.23;;;9.65;;
44925;SDS011;30662;51.210;7.656;2024-02-21T00:47:14;25.27;;;10.85;;
44925;SDS011;30662;51.210;7.656;2024-02-21T00:49:41;26.90;;;9.52;;
44925;SDS011;30662;51.210;7.656;2024-02-21T00:52:08;18.77;;;10.30;;
44925;SDS011;30662;51.210;7.656;2024-02-21T00:54:34;26.02;;;9.98;;
44925;SDS011;30662;51.210;7.656;2024-02-21T00:57:15;25.75;;;10.82;;
44925;SDS011;30662;51.210;7.656;2024-02-21T00:59:43;22.60;;;9.73;;
44925;SDS011;30662;51.210;7.656;2024-02-21T01:02:10;25.00;;;10.00;;
44925;SDS011;30662;51.210;7.656;2024-02-21T01:04:37;23.88;;;10.35;;
44925;SDS011;30662;51.210;7.656;2024-02-21T01:07:04;28.52;;;11.80;;
44925;SDS011;30662;51.210;7.656;2024-02-21T01:09:30;17.58;;;9.95;;
44925;SDS011;30662;51.210;7.656;2024-02-21T01:11:57;23.30;;;10.82;;
44925;SDS011;30662;51.210;7.656;2024-02-21T01:14:25;23.63;;;10.63;;
44925;SDS011;30662;51.210;7.656;2024-02-21T01:16:53;30.05;;;10.50;;
44925;SDS011;30662;51.210;7.656;2024-02-21T01:19:20;24.88;;;11.20;;
44925;SDS011;30662;51.210;7.656;2024-02-21T01:21:46;31.58;;;11.55;;
44925;SDS011;30662;51.210;7.656;2024-02-21T01:24:13;25.52;;;11.05;;
44925;SDS011;30662;51.210;7.656;2024-02-21T01:26:40;23.08;;;10.20;;
44925;SDS011;30662;51.210;7.656;2024-02-21T01:29:07;19.88;;;10.13;;
44925;SDS011;30662;51.210;7.656;2024-02-21T01:31:33;19.48;;;9.38;;
44925;SDS011;30662;51.210;7.656;2024-02-21T01:34:02;22.35;;;11.48;;
44925;SDS011;30662;51.210;7.656;2024-02-21T01:36:28;25.38;;;10.52;;
44925;SDS011;30662;51.210;7.656;2024-02-21T01:38:55;29.88;;;11.93;;
44925;SDS011;30662;51.210;7.656;2024-02-21T01:41:22;21.25;;;9.82;;
44925;SDS011;30662;51.210;7.656;2024-02-21T01:43:48;21.20;;;10.20;;
44925;SDS011;30662;51.210;7.656;2024-02-21T01:46:15;24.48;;;10.43;;
44925;SDS011;30662;51.210;7.656;2024-02-21T01:48:42;19.70;;;10.63;;
44925;SDS011;30662;51.210;7.656;2024-02-21T01:51:10;22.55;;;9.88;;
44925;SDS011;30662;51.210;7.656;2024-02-21T01:53:38;20.05;;;10.00;;
44925;SDS011;30662;51.210;7.656;2024-02-21T01:56:08;24.40;;;11.02;;
44925;SDS011;30662;51.210;7.656;2024-02-21T01:58:36;22.50;;;11.35;;
44925;SDS011;30662;51.210;7.656;2024-02-21T02:01:05;24.55;;;9.90;;
44925;SDS011;30662;51.210;7.656;2024-02-21T02:03:32;26.08;;;10.90;;
44925;SDS011;30662;51.210;7.656;2024-02-21T02:05:59;22.80;;;11.02;;
44925;SDS011;30662;51.210;7.656;2024-02-21T02:08:28;25.75;;;11.73;;
44925;SDS011;30662;51.210;7.656;2024-02-21T02:10:54;26.38;;;11.65;;
44925;SDS011;30662;51.210;7.656;2024-02-21T02:13:21;23.15;;;10.70;;
44925;SDS011;30662;51.210;7.656;2024-02-21T02:15:48;22.58;;;10.35;;
44925;SDS011;30662;51.210;7.656;2024-02-21T02:18:16;23.92;;;10.75;;
44925;SDS011;30662;51.210;7.656;2024-02-21T02:20:44;26.20;;;10.43;;
44925;SDS011;30662;51.210;7.656;2024-02-21T02:23:12;27.33;;;11.05;;
44925;SDS011;30662;51.210;7.656;2024-02-21T02:25:44;22.52;;;10.43;;
44925;SDS011;30662;51.210;7.656;2024-02-21T02:28:12;24.63;;;12.20;;
44925;SDS011;30662;51.210;7.656;2024-02-21T02:30:39;22.40;;;12.15;;
44925;SDS011;30662;51.210;7.656;2024-02-21T02:33:05;19.83;;;11.40;;
44925;SDS011;30662;51.210;7.656;2024-02-21T02:35:33;19.88;;;10.90;;
44925;SDS011;30662;51.210;7.656;2024-02-21T02:38:00;20.98;;;11.52;;
44925;SDS011;30662;51.210;7.656;2024-02-21T02:40:28;25.23;;;11.98;;
44925;SDS011;30662;51.210;7.656;2024-02-21T02:42:59;20.25;;;11.20;;
44925;SDS011;30662;51.210;7.656;2024-02-21T02:45:26;24.83;;;11.20;;
44925;SDS011;30662;51.210;7.656;2024-02-21T02:47:53;23.90;;;12.10;;
44925;SDS011;30662;51.210;7.656;2024-02-21T02:50:20;25.25;;;11.65;;
44925;SDS011;30662;51.210;7.656;2024-02-21T02:52:47;20.70;;;11.02;;
44925;SDS011;30662;51.210;7.656;2024-02-21T02:55:13;21.52;;;10.52;;
44925;SDS011;30662;51.210;7.656;2024-02-21T02:57:42;21.38;;;10.88;;
44925;SDS011;30662;51.210;7.656;2024-02-21T03:00:10;21.20;;;10.65;;
44925;SDS011;30662;51.210;7.656;2024-02-21T03:02:37;20.65;;;10.57;;
44925;SDS011;30662;51.210;7.656;2024-02-21T03:05:11;19.30;;;10.65;;
44925;SDS011;30662;51.210;7.656;2024-02-21T03:07:38;19.15;;;9.85;;
44925;SDS011;30662;51.210;7.656;2024-02-21T03:10:05;21.17;;;10.55;;
44925;SDS011;30662;51.210;7.656;2024-02-21T03:12:32;21.35;;;11.30;;
44925;SDS011;30662;51.210;7.656;2024-02-21T03:15:00;23.27;;;11.55;;
44925;SDS011;30662;51.210;7.656;2024-02-21T03:17:31;24.85;;;11.50;;
44925;SDS011;30662;51.210;7.656;2024-02-21T03:19:58;22.15;;;12.35;;
44925;SDS011;30662;51.210;7.656;2024-02-21T03:22:25;24.08;;;11.48;;
44925;SDS011;30662;51.210;7.656;2024-02-21T03:24:52;26.10;;;11.35;;
44925;SDS011;30662;51.210;7.656;2024-02-21T03:27:19;25.05;;;10.82;;
44925;SDS011;30662;51.210;7.656;2024-02-21T03:29:46;18.88;;;10.70;;
44925;SDS011;30662;51.210;7.656;2024-02-21T03:32:14;29.52;;;12.32;;
44925;SDS011;30662;51.210;7.656;2024-02-21T03:34:41;22.05;;;9.88;;
44925;SDS011;30662;51.210;7.656;2024-02-21T03:37:08;27.88;;;11.68;;
44925;SDS011;30662;51.210;7.656;2024-02-21T03:39:34;22.48;;;10.23;;
44925;SDS011;30662;51.210;7.656;2024-02-21T03:42:01;20.17;;;10.23;;
44925;SDS011;30662;51.210;7.656;2024-02-21T03:44:28;22.25;;;10.75;;
44925;SDS011;30662;51.210;7.656;2024-02-21T03:46:55;20.08;;;11.90;;
44925;SDS011;30662;51.210;7.656;2024-02-21T03:49:23;19.27;;;10.00;;
44925;SDS011;30662;51.210;7.656;2024-02-21T03:51:49;20.02;;;10.60;;
44925;SDS011;30662;51.210;7.656;2024-02-21T03:54:16;22.85;;;11.60;;
44925;SDS011;30662;51.210;7.656;2024-02-21T03:56:43;22.35;;;10.88;;
44925;SDS011;30662;51.210;7.656;2024-02-21T03:59:09;22.13;;;10.35;;
44925;SDS011;30662;51.210;7.656;2024-02-21T04:01:36;23.80;;;11.13;;
44925;SDS011;30662;51.210;7.656;2024-02-21T04:04:03;25.25;;;10.23;;
44925;SDS011;30662;51.210;7.656;2024-02-21T04:06:31;21.90;;;10.82;;
44925;SDS011;30662;51.210;7.656;2024-02-21T04:08:58;20.30;;;10.27;;
44925;SDS011;30662;51.210;7.656;2024-02-21T04:11:25;23.45;;;10.38;;
44925;SDS011;30662;51.210;7.656;2024-02-21T04:13:51;20.55;;;9.85;;
44925;SDS011;30662;51.210;7.656;2024-02-21T04:16:18;21.95;;;10.10;;
44925;SDS011;30662;51.210;7.656;2024-02-21T04:18:45;19.40;;;8.90;;
44925;SDS011;30662;51.210;7.656;2024-02-21T04:21:14;19.15;;;9.27;;
44925;SDS011;30662;51.210;7.656;2024-02-21T04:23:43;20.08;;;9.98;;
44925;SDS011;30662;51.210;7.656;2024-02-21T04:26:09;21.13;;;9.70;;
44925;SDS011;30662;51.210;7.656;2024-02-21T04:28:36;20.05;;;9.35;;
44925;SDS011;30662;51.210;7.656;2024-02-21T04:31:04;18.20;;;9.10;;
44925;SDS011;30662;51.210;7.656;2024-02-21T04:33:31;22.50;;;9.68;;
44925;SDS011;30662;51.210;7.656;2024-02-21T04:35:57;23.45;;;9.05;;
44925;SDS011;30662;51.210;7.656;2024-02-21T04:38:24;24.98;;;10.15;;
44925;SDS011;30662;51.210;7.656;2024-02-21T04:40:52;18.55;;;9.43;;
44925;SDS011;30662;51.210;7.656;2024-02-21T04:43:19;18.90;;;8.38;;
44925;SDS011;30662;51.210;7.656;2024-02-21T04:45:45;17.35;;;8.93;;
44925;SDS011;30662;51.210;7.656;2024-02-21T04:48:12;17.92;;;9.57;;
44925;SDS011;30662;51.210;7.656;2024-02-21T04:50:38;18.83;;;8.65;;
44925;SDS011;30662;51.210;7.656;2024-02-21T04:53:05;18.48;;;8.40;;
44925;SDS011;30662;51.210;7.656;2024-02-21T04:55:32;18.42;;;8.55;;
44925;SDS011;30662;51.210;7.656;2024-02-21T04:58:00;14.90;;;8.13;;
44925;SDS011;30662;51.210;7.656;2024-02-21T05:00:27;20.77;;;8.77;;
44925;SDS011;30662;51.210;7.656;2024-02-21T05:02:53;17.88;;;8.48;;
44925;SDS011;30662;51.210;7.656;2024-02-21T05:05:21;14.82;;;8.65;;
44925;SDS011;30662;51.210;7.656;2024-02-21T05:07:47;16.90;;;8.70;;
44925;SDS011;30662;51.210;7.656;2024-02-21T05:10:14;16.15;;;9.05;;
44925;SDS011;30662;51.210;7.656;2024-02-21T05:12:41;20.17;;;9.07;;
44925;SDS011;30662;51.210;7.656;2024-02-21T05:15:09;18.25;;;8.25;;
44925;SDS011;30662;51.210;7.656;2024-02-21T05:17:36;21.10;;;8.77;;
44925;SDS011;30662;51.210;7.656;2024-02-21T05:20:03;23.35;;;8.48;;
44925;SDS011;30662;51.210;7.656;2024-02-21T05:22:30;19.63;;;8.02;;
44925;SDS011;30662;51.210;7.656;2024-02-21T05:24:57;21.20;;;8.23;;
44925;SDS011;30662;51.210;7.656;2024-02-21T05:27:23;18.45;;;8.10;;
44925;SDS011;30662;51.210;7.656;2024-02-21T05:29:50;21.38;;;8.60;;
44925;SDS011;30662;51.210;7.656;2024-02-21T05:32:18;12.98;;;8.73;;
44925;SDS011;30662;51.210;7.656;2024-02-21T05:34:48;14.45;;;7.72;;
44925;SDS011;30662;51.210;7.656;2024-02-21T05:37:14;19.92;;;8.45;;
44925;SDS011;30662;51.210;7.656;2024-02-21T05:39:41;16.00;;;6.90;;
44925;SDS011;30662;51.210;7.656;2024-02-21T05:42:08;19.27;;;7.32;;
44925;SDS011;30662;51.210;7.656;2024-02-21T05:44:35;19.58;;;8.70;;
44925;SDS011;30662;51.210;7.656;2024-02-21T05:47:01;14.93;;;8.63;;
44925;SDS011;30662;51.210;7.656;2024-02-21T05:49:29;20.13;;;8.63;;
44925;SDS011;30662;51.210;7.656;2024-02-21T05:51:56;20.25;;;8.27;;
44925;SDS011;30662;51.210;7.656;2024-02-21T05:54:23;17.65;;;8.70;;
44925;SDS011;30662;51.210;7.656;2024-02-21T05:56:49;17.23;;;9.15;;
44925;SDS011;30662;51.210;7.656;2024-02-21T05:59:16;16.25;;;9.68;;
44925;SDS011;30662;51.210;7.656;2024-02-21T06:01:43;17.98;;;8.55;;
44925;SDS011;30662;51.210;7.656;2024-02-21T06:04:09;16.05;;;10.32;;
44925;SDS011;30662;51.210;7.656;2024-02-21T06:06:38;16.75;;;8.30;;
44925;SDS011;30662;51.210;7.656;2024-02-21T06:09:04;16.45;;;8.27;;
44925;SDS011;30662;51.210;7.656;2024-02-21T06:11:31;18.50;;;8.43;;
44925;SDS011;30662;51.210;7.656;2024-02-21T06:13:58;15.85;;;8.68;;
44925;SDS011;30662;51.210;7.656;2024-02-21T06:16:25;19.73;;;8.15;;
44925;SDS011;30662;51.210;7.656;2024-02-21T06:18:51;20.17;;;8.05;;
44925;SDS011;30662;51.210;7.656;2024-02-21T06:21:18;16.25;;;7.97;;
44925;SDS011;30662;51.210;7.656;2024-02-21T06:23:46;14.50;;;7.85;;
44925;SDS011;30662;51.210;7.656;2024-02-21T06:26:13;12.45;;;7.40;;
44925;SDS011;30662;51.210;7.656;2024-02-21T06:28:40;16.50;;;7.82;;
44925;SDS011;30662;51.210;7.656;2024-02-21T06:31:07;20.25;;;8.10;;
44925;SDS011;30662;51.210;7.656;2024-02-21T06:33:33;17.92;;;7.80;;
44925;SDS011;30662;51.210;7.656;2024-02-21T06:36:00;15.10;;;7.93;;
44925;SDS011;30662;51.210;7.656;2024-02-21T06:38:27;16.85;;;7.43;;
44925;SDS011;30662;51.210;7.656;2024-02-21T06:40:55;17.77;;;7.97;;
44925;SDS011;30662;51.210;7.656;2024-02-21T06:43:22;17.00;;;7.60;;
44925;SDS011;30662;51.210;7.656;2024-02-21T06:45:49;18.67;;;8.05;;
44925;SDS011;30662;51.210;7.656;2024-02-21T06:48:16;16.77;;;8.95;;
44925;SDS011;30662;51.210;7.656;2024-02-21T06:50:43;16.30;;;8.10;;
44925;SDS011;30662;51.210;7.656;2024-02-21T06:53:10;19.05;;;9.45;;
44925;SDS011;30662;51.210;7.656;2024-02-21T06:55:37;14.93;;;7.55;;
44925;SDS011;30662;51.210;7.656;2024-02-21T06:58:05;16.70;;;8.18;;
44925;SDS011;30662;51.210;7.656;2024-02-21T07:00:32;15.32;;;7.90;;
44925;SDS011;30662;51.210;7.656;2024-02-21T07:02:59;19.50;;;8.60;;
44925;SDS011;30662;51.210;7.656;2024-02-21T07:05:25;15.05;;;7.78;;
44925;SDS011;30662;51.210;7.656;2024-02-21T07:07:52;19.60;;;7.97;;
44925;SDS011;30662;51.210;7.656;2024-02-21T07:10:19;21.20;;;7.95;;
44925;SDS011;30662;51.210;7.656;2024-02-21T07:12:46;18.50;;;7.50;;
44925;SDS011;30662;51.210;7.656;2024-02-21T07:15:14;18.25;;;7.88;;
44925;SDS011;30662;51.210;7.656;2024-02-21T07:17:41;15.85;;;7.10;;
44925;SDS011;30662;51.210;7.656;2024-02-21T07:20:08;16.10;;;7.20;;
44925;SDS011;30662;51.210;7.656;2024-02-21T07:22:35;22.02;;;7.80;;
44925;SDS011;30662;51.210;7.656;2024-02-21T07:25:02;18.02;;;7.25;;
44925;SDS011;30662;51.210;7.656;2024-02-21T07:27:32;13.90;;;6.88;;
44925;SDS011;30662;51.210;7.656;2024-02-21T07:29:58;14.30;;;7.22;;
44925;SDS011;30662;51.210;7.656;2024-02-21T07:32:27;17.73;;;7.13;;
44925;SDS011;30662;51.210;7.656;2024-02-21T07:34:53;13.82;;;7.65;;
44925;SDS011;30662;51.210;7.656;2024-02-21T07:37:20;16.27;;;7.30;;
44925;SDS011;30662;51.210;7.656;2024-02-21T07:39:47;15.90;;;7.78;;
44925;SDS011;30662;51.210;7.656;2024-02-21T07:42:14;11.77;;;6.43;;
44925;SDS011;30662;51.210;7.656;2024-02-21T07:44:41;17.40;;;6.13;;
44925;SDS011;30662;51.210;7.656;2024-02-21T07:47:07;10.23;;;6.18;;
44925;SDS011;30662;51.210;7.656;2024-02-21T07:49:42;15.55;;;7.07;;
44925;SDS011;30662;51.210;7.656;2024-02-21T07:52:09;13.07;;;6.63;;
44925;SDS011;30662;51.210;7.656;2024-02-21T07:54:36;11.77;;;6.68;;
44925;SDS011;30662;51.210;7.656;2024-02-21T07:57:03;15.73;;;6.60;;
44925;SDS011;30662;51.210;7.656;2024-02-21T07:59:34;16.65;;;6.05;;
44925;SDS011;30662;51.210;7.656;2024-02-21T08:02:00;14.20;;;6.13;;
44925;SDS011;30662;51.210;7.656;2024-02-21T08:04:27;16.25;;;6.97;;
44925;SDS011;30662;51.210;7.656;2024-02-21T08:06:56;13.23;;;6.00;;
44925;SDS011;30662;51.210;7.656;2024-02-21T08:09:22;20.20;;;7.15;;
44925;SDS011;30662;51.210;7.656;2024-02-21T08:11:49;16.50;;;7.85;;
44925;SDS011;30662;51.210;7.656;2024-02-21T08:14:17;19.23;;;7.38;;
44925;SDS011;30662;51.210;7.656;2024-02-21T08:16:46;15.65;;;6.70;;
44925;SDS011;30662;51.210;7.656;2024-02-21T08:19:13;11.65;;;6.38;;
44925;SDS011;30662;51.210;7.656;2024-02-21T08:21:40;17.63;;;6.25;;
44925;SDS011;30662;51.210;7.656;2024-02-21T08:24:08;17.77;;;6.88;;
44925;SDS011;30662;51.210;7.656;2024-02-21T08:26:35;12.23;;;5.65;;
44925;SDS011;30662;51.210;7.656;2024-02-21T08:29:06;14.70;;;6.28;;
44925;SDS011;30662;51.210;7.656;2024-02-21T08:31:33;17.95;;;6.97;;
44925;SDS011;30662;51.210;7.656;2024-02-21T08:34:00;13.50;;;6.03;;
44925;SDS011;30662;51.210;7.656;2024-02-21T08:36:27;13.18;;;5.78;;
44925;SDS011;30662;51.210;7.656;2024-02-21T08:38:53;13.23;;;6.10;;
44925;SDS011;30662;51.210;7.656;2024-02-21T08:41:21;17.38;;;6.10;;
44925;SDS011;30662;51.210;7.656;2024-02-21T08:43:55;14.82;;;5.78;;
44925;SDS011;30662;51.210;7.656;2024-02-21T08:46:22;11.30;;;5.63;;
44925;SDS011;30662;51.210;7.656;2024-02-21T08:48:49;13.88;;;5.40;;
44925;SDS011;30662;51.210;7.656;2024-02-21T08:51:16;12.48;;;5.50;;
44925;SDS011;30662;51.210;7.656;2024-02-21T08:53:43;16.25;;;5.32;;
44925;SDS011;30662;51.210;7.656;2024-02-21T08:56:10;14.57;;;5.55;;
44925;SDS011;30662;51.210;7.656;2024-02-21T08:58:39;12.60;;;5.65;;
44925;SDS011;30662;51.210;7.656;2024-02-21T09:01:07;11.77;;;5.43;;
44925;SDS011;30662;51.210;7.656;2024-02-21T09:03:34;13.80;;;6.10;;
44925;SDS011;30662;51.210;7.656;2024-02-21T09:06:01;14.82;;;6.25;;
44925;SDS011;30662;51.210;7.656;2024-02-21T09:08:27;12.90;;;5.47;;
44925;SDS011;30662;51.210;7.656;2024-02-21T09:10:54;13.50;;;6.15;;
44925;SDS011;30662;51.210;7.656;2024-02-21T09:13:21;12.63;;;5.30;;
44925;SDS011;30662;51.210;7.656;2024-02-21T09:15:49;13.35;;;5.80;;
44925;SDS011;30662;51.210;7.656;2024-02-21T09:18:16;13.35;;;6.30;;
44925;SDS011;30662;51.210;7.656;2024-02-21T09:20:43;16.27;;;7.40;;
44925;SDS011;30662;51.210;7.656;2024-02-21T09:23:10;14.23;;;6.18;;
44925;SDS011;30662;51.210;7.656;2024-02-21T09:25:36;12.75;;;6.57;;
44925;SDS011;30662;51.210;7.656;2024-02-21T09:28:04;11.88;;;6.00;;
44925;SDS011;30662;51.210;7.656;2024-02-21T09:30:30;17.80;;;6.82;;
44925;SDS011;30662;51.210;7.656;2024-02-21T09:32:59;19.77;;;6.65;;
44925;SDS011;30662;51.210;7.656;2024-02-21T09:35:26;16.73;;;6.07;;
44925;SDS011;30662;51.210;7.656;2024-02-21T09:37:52;20.40;;;6.93;;
44925;SDS011;30662;51.210;7.656;2024-02-21T09:40:19;13.70;;;6.10;;
44925;SDS011;30662;51.210;7.656;2024-02-21T09:42:47;21.35;;;7.13;;
44925;SDS011;30662;51.210;7.656;2024-02-21T09:45:17;16.58;;;6.85;;
44925;SDS011;30662;51.210;7.656;2024-02-21T09:47:50;18.88;;;6.82;;
44925;SDS011;30662;51.210;7.656;2024-02-21T09:50:23;15.15;;;5.60;;
44925;SDS011;30662;51.210;7.656;2024-02-21T09:52:52;16.75;;;6.00;;
44925;SDS011;30662;51.210;7.656;2024-02-21T09:55:21;15.52;;;6.20;;
44925;SDS011;30662;51.210;7.656;2024-02-21T09:57:48;14.80;;;6.38;;
44925;SDS011;30662;51.210;7.656;2024-02-21T10:00:17;14.30;;;6.00;;
44925;SDS011;30662;51.210;7.656;2024-02-21T10:02:44;16.17;;;6.75;;
44925;SDS011;30662;51.210;7.656;2024-02-21T10:05:11;15.30;;;5.45;;
44925;SDS011;30662;51.210;7.656;2024-02-21T10:07:39;15.63;;;6.35;;
44925;SDS011;30662;51.210;7.656;2024-02-21T10:10:07;15.60;;;6.50;;
44925;SDS011;30662;51.210;7.656;2024-02-21T10:12:34;13.88;;;6.38;;
44925;SDS011;30662;51.210;7.656;2024-02-21T10:15:01;14.27;;;5.97;;
44925;SDS011;30662;51.210;7.656;2024-02-21T10:17:28;13.40;;;5.53;;
44925;SDS011;30662;51.210;7.656;2024-02-21T10:20:02;11.35;;;5.70;;
44925;SDS011;30662;51.210;7.656;2024-02-21T10:22:33;16.70;;;5.30;;
44925;SDS011;30662;51.210;7.656;2024-02-21T10:25:07;12.35;;;5.53;;
44925;SDS011;30662;51.210;7.656;2024-02-21T10:27:34;19.00;;;6.57;;
44925;SDS011;30662;51.210;7.656;2024-02-21T10:30:02;18.27;;;6.75;;
44925;SDS011;30662;51.210;7.656;2024-02-21T10:32:31;14.70;;;5.70;;
44925;SDS011;30662;51.210;7.656;2024-02-21T10:35:01;11.35;;;5.82;;
44925;SDS011;30662;51.210;7.656;2024-02-21T10:37:31;12.30;;;5.53;;
44925;SDS011;30662;51.210;7.656;2024-02-21T10:39:58;11.88;;;5.28;;
44925;SDS011;30662;51.210;7.656;2024-02-21T10:42:28;17.90;;;5.45;;
44925;SDS011;30662;51.210;7.656;2024-02-21T10:44:55;12.10;;;5.20;;
44925;SDS011;30662;51.210;7.656;2024-02-21T10:47:31;15.90;;;4.55;;
44925;SDS011;30662;51.210;7.656;2024-02-21T10:50:02;11.10;;;4.35;;
44925;SDS011;30662;51.210;7.656;2024-02-21T10:52:32;9.90;;;4.35;;
44925;SDS011;30662;51.210;7.656;2024-02-21T10:55:09;9.82;;;4.55;;
44925;SDS011;30662;51.210;7.656;2024-02-21T10:57:42;11.75;;;5.00;;
44925;SDS011;30662;51.210;7.656;2024-02-21T11:00:10;11.38;;;3.85;;
44925;SDS011;30662;51.210;7.656;2024-02-21T11:02:38;13.35;;;4.82;;
44925;SDS011;30662;51.210;7.656;2024-02-21T11:05:06;8.57;;;4.40;;
44925;SDS011;30662;51.210;7.656;2024-02-21T11:07:35;11.60;;;5.00;;
44925;SDS011;30662;51.210;7.656;2024-02-21T11:10:03;15.85;;;5.05;;
44925;SDS011;30662;51.210;7.656;2024-02-21T11:12:32;9.43;;;4.28;;
44925;SDS011;30662;51.210;7.656;2024-02-21T11:15:07;14.98;;;4.78;;
44925;SDS011;30662;51.210;7.656;2024-02-21T11:17:35;14.18;;;5.68;;
44925;SDS011;30662;51.210;7.656;2024-02-21T11:20:15;12.80;;;4.65;;
44925;SDS011;30662;51.210;7.656;2024-02-21T11:22:42;11.75;;;4.40;;
44925;SDS011;30662;51.210;7.656;2024-02-21T11:25:10;11.07;;;4.60;;
44925;SDS011;30662;51.210;7.656;2024-02-21T11:27:37;13.77;;;4.82;;
44925;SDS011;30662;51.210;7.656;2024-02-21T11:30:04;12.55;;;5.32;;
44925;SDS011;30662;51.210;7.656;2024-02-21T11:32:33;13.15;;;5.15;;
44925;SDS011;30662;51.210;7.656;2024-02-21T11:35:00;13.02;;;5.13;;
44925;SDS011;30662;51.210;7.656;2024-02-21T11:37:34;12.63;;;4.97;;
44925;SDS011;30662;51.210;7.656;2024-02-21T11:40:05;9.05;;;4.50;;
44925;SDS011;30662;51.210;7.656;2024-02-21T11:42:32;11.35;;;4.78;;
44925;SDS011;30662;51.210;7.656;2024-02-21T11:44:59;12.98;;;4.80;;
44925;SDS011;30662;51.210;7.656;2024-02-21T11:47:31;13.75;;;5.13;;
44925;SDS011;30662;51.210;7.656;2024-02-21T11:49:59;15.73;;;4.53;;
44925;SDS011;30662;51.210;7.656;2024-02-21T11:52:26;9.10;;;4.38;;
44925;SDS011;30662;51.210;7.656;2024-02-21T11:54:53;9.90;;;4.18;;
44925;SDS011;30662;51.210;7.656;2024-02-21T11:57:20;16.85;;;5.40;;
44925;SDS011;30662;51.210;7.656;2024-02-21T11:59:47;13.25;;;3.75;;
44925;SDS011;30662;51.210;7.656;2024-02-21T12:02:14;10.02;;;4.07;;
44925;SDS011;30662;51.210;7.656;2024-02-21T12:04:41;11.18;;;4.50;;
44925;SDS011;30662;51.210;7.656;2024-02-21T12:07:10;10.13;;;3.63;;
44925;SDS011;30662;51.210;7.656;2024-02-21T12:09:37;10.32;;;3.72;;
44925;SDS011;30662;51.210;7.656;2024-02-21T12:12:04;9.77;;;4.50;;
44925;SDS011;30662;51.210;7.656;2024-02-21T12:14:32;13.45;;;4.15;;
44925;SDS011;30662;51.210;7.656;2024-02-21T12:17:01;12.10;;;4.50;;
44925;SDS011;30662;51.210;7.656;2024-02-21T12:19:29;12.77;;;4.63;;
44925;SDS011;30662;51.210;7.656;2024-02-21T12:21:56;10.73;;;4.07;;
44925;SDS011;30662;51.210;7.656;2024-02-21T12:24:26;10.75;;;4.43;;
44925;SDS011;30662;51.210;7.656;2024-02-21T12:26:54;18.52;;;6.35;;
44925;SDS011;30662;51.210;7.656;2024-02-21T12:29:23;11.73;;;4.40;;
44925;SDS011;30662;51.210;7.656;2024-02-21T12:31:50;10.48;;;4.32;;
44925;SDS011;30662;51.210;7.656;2024-02-21T12:34:17;9.32;;;4.07;;
44925;SDS011;30662;51.210;7.656;2024-02-21T12:37:00;16.58;;;5.00;;
44925;SDS011;30662;51.210;7.656;2024-02-21T12:39:29;12.27;;;5.93;;
44925;SDS011;30662;51.210;7.656;2024-02-21T12:41:55;11.43;;;5.13;;
44925;SDS011;30662;51.210;7.656;2024-02-21T12:44:22;11.07;;;5.30;;
44925;SDS011;30662;51.210;7.656;2024-02-21T12:46:49;14.02;;;5.80;;
44925;SDS011;30662;51.210;7.656;2024-02-21T12:49:17;13.10;;;5.53;;
44925;SDS011;30662;51.210;7.656;2024-02-21T12:51:45;11.75;;;5.40;;
44925;SDS011;30662;51.210;7.656;2024-02-21T12:54:11;17.45;;;6.20;;
44925;SDS011;30662;51.210;7.656;2024-02-21T12:56:40;13.10;;;5.75;;
44925;SDS011;30662;51.210;7.656;2024-02-21T12:59:06;14.25;;;5.43;;
44925;SDS011;30662;51.210;7.656;2024-02-21T13:01:33;12.25;;;5.70;;
44925;SDS011;30662;51.210;7.656;2024-02-21T13:04:00;12.95;;;5.78;;
44925;SDS011;30662;51.210;7.656;2024-02-21T13:06:27;17.42;;;5.60;;
44925;SDS011;30662;51.210;7.656;2024-02-21T13:08:57;13.98;;;6.22;;
44925;SDS011;30662;51.210;7.656;2024-02-21T13:11:24;14.18;;;5.22;;
44925;SDS011;30662;51.210;7.656;2024-02-21T13:13:53;16.02;;;5.93;;
44925;SDS011;30662;51.210;7.656;2024-02-21T13:16:19;11.00;;;5.25;;
44925;SDS011;30662;51.210;7.656;2024-02-21T13:18:46;7.15;;;4.45;;
44925;SDS011;30662;51.210;7.656;2024-02-21T13:21:13;10.13;;;4.05;;
44925;SDS011;30662;51.210;7.656;2024-02-21T13:23:40;11.50;;;4.95;;
44925;SDS011;30662;51.210;7.656;2024-02-21T13:26:06;11.18;;;4.43;;
44925;SDS011;30662;51.210;7.656;2024-02-21T13:28:33;12.00;;;4.68;;
44925;SDS011;30662;51.210;7.656;2024-02-21T13:31:01;12.50;;;4.07;;
44925;SDS011;30662;51.210;7.656;2024-02-21T13:33:28;21.10;;;4.78;;
44925;SDS011;30662;51.210;7.656;2024-02-21T13:35:55;8.05;;;4.20;;
44925;SDS011;30662;51.210;7.656;2024-02-21T13:38:22;8.68;;;3.50;;
44925;SDS011;30662;51.210;7.656;2024-02-21T13:40:48;10.60;;;3.90;;
44925;SDS011;30662;51.210;7.656;2024-02-21T13:43:15;10.73;;;4.47;;
44925;SDS011;30662;51.210;7.656;2024-02-21T13:45:45;10.13;;;3.92;;
44925;SDS011;30662;51.210;7.656;2024-02-21T13:48:23;8.23;;;3.47;;
44925;SDS011;30662;51.210;7.656;2024-02-21T13:50:50;11.40;;;3.88;;
44925;SDS011;30662;51.210;7.656;2024-02-21T13:53:18;15.18;;;6.68;;
44925;SDS011;30662;51.210;7.656;2024-02-21T13:55:45;11.60;;;4.75;;
44925;SDS011;30662;51.210;7.656;2024-02-21T13:58:12;15.07;;;4.70;;
44925;SDS011;30662;51.210;7.656;2024-02-21T14:00:39;9.48;;;3.97;;
44925;SDS011;30662;51.210;7.656;2024-02-21T14:03:06;9.63;;;4.45;;
44925;SDS011;30662;51.210;7.656;2024-02-21T14:05:34;10.20;;;4.78;;
44925;SDS011;30662;51.210;7.656;2024-02-21T14:08:01;13.02;;;4.40;;
44925;SDS011;30662;51.210;7.656;2024-02-21T14:10:27;9.40;;;4.80;;
44925;SDS011;30662;51.210;7.656;2024-02-21T14:12:54;9.18;;;4.05;;
44925;SDS011;30662;51.210;7.656;2024-02-21T14:15:21;12.13;;;4.10;;
44925;SDS011;30662;51.210;7.656;2024-02-21T14:17:48;14.50;;;4.13;;
44925;SDS011;30662;51.210;7.656;2024-02-21T14:20:15;8.68;;;4.43;;
44925;SDS011;30662;51.210;7.656;2024-02-21T14:22:45;9.70;;;3.75;;
44925;SDS011;30662;51.210;7.656;2024-02-21T14:25:12;7.18;;;3.47;;
44925;SDS011;30662;51.210;7.656;2024-02-21T14:27:38;9.68;;;3.65;;
44925;SDS011;30662;51.210;7.656;2024-02-21T14:30:06;11.63;;;4.38;;
44925;SDS011;30662;51.210;7.656;2024-02-21T14:32:33;10.02;;;3.53;;
44925;SDS011;30662;51.210;7.656;2024-02-21T14:35:00;10.32;;;3.92;;
44925;SDS011;30662;51.210;7.656;2024-02-21T14:37:32;7.60;;;3.00;;
44925;SDS011;30662;51.210;7.656;2024-02-21T14:40:00;13.90;;;3.67;;
44925;SDS011;30662;51.210;7.656;2024-02-21T14:42:27;13.55;;;3.83;;
44925;SDS011;30662;51.210;7.656;2024-02-21T14:44:54;10.15;;;3.47;;
44925;SDS011;30662;51.210;7.656;2024-02-21T14:47:21;10.10;;;3.72;;
44925;SDS011;30662;51.210;7.656;2024-02-21T14:49:47;7.00;;;3.58;;
44925;SDS011;30662;51.210;7.656;2024-02-21T14:52:14;7.05;;;3.78;;
44925;SDS011;30662;51.210;7.656;2024-02-21T14:54:41;10.00;;;4.22;;
44925;SDS011;30662;51.210;7.656;2024-02-21T14:57:09;11.43;;;3.45;;
44925;SDS011;30662;51.210;7.656;2024-02-21T14:59:36;13.15;;;4.35;;